BAW43HA EHAM-EGLL
Flight info
| Callsign | BAW43HA |
|---|---|
| Flight time | 0h 48m |
| Altitude | 22000 |
| Route | IDRID L980 LOGAN |
| Aircraft | A320/M-SDE3FGHIRWY/LB1 |
Departure
| Time | 2026-05-07 18:37 |
|---|---|
| Airport | Amsterdam Airport Schiphol (EHAM) |
Arrival
| Time | 2026-05-07 19:25 |
|---|---|
| Airport | London Heathrow Airport (EGLL) |
| Time | Latitude | Longitude | Altitude | Speed | Heading |
|---|---|---|---|---|---|
| 2026-05-07 17:50 | 52.30716 | 4.77089 | -1 ft | 0 kts | 3° |
| 2026-05-07 18:24 | 52.30715 | 4.77089 | -1 ft | 1 kts | 3° |
| 2026-05-07 18:24 | 52.30696 | 4.77088 | -1 ft | 3 kts | 3° |
| 2026-05-07 18:25 | 52.30674 | 4.77086 | -1 ft | 3 kts | 3° |
| 2026-05-07 18:25 | 52.30652 | 4.77084 | -1 ft | 3 kts | 3° |
| 2026-05-07 18:25 | 52.30631 | 4.77082 | -1 ft | 2 kts | 3° |
| 2026-05-07 18:25 | 52.30620 | 4.77081 | -1 ft | 0 kts | 3° |
| 2026-05-07 18:29 | 52.30631 | 4.77083 | -1 ft | 4 kts | 7° |
| 2026-05-07 18:29 | 52.30656 | 4.77114 | -1 ft | 6 kts | 56° |
| 2026-05-07 18:29 | 52.30648 | 4.77202 | -1 ft | 11 kts | 109° |
| 2026-05-07 18:29 | 52.30579 | 4.77240 | -1 ft | 13 kts | 208° |
| 2026-05-07 18:30 | 52.30523 | 4.77116 | -1 ft | 15 kts | 239° |
| 2026-05-07 18:30 | 52.30467 | 4.76965 | -1 ft | 17 kts | 238° |
| 2026-05-07 18:30 | 52.30399 | 4.76795 | -1 ft | 20 kts | 238° |
| 2026-05-07 18:30 | 52.30315 | 4.76574 | -1 ft | 26 kts | 238° |
| 2026-05-07 18:31 | 52.30249 | 4.76400 | -1 ft | 28 kts | 238° |
| 2026-05-07 18:31 | 52.30120 | 4.76062 | -1 ft | 30 kts | 238° |
| 2026-05-07 18:31 | 52.30044 | 4.75867 | -1 ft | 31 kts | 237° |
| 2026-05-07 18:31 | 52.29903 | 4.75501 | -1 ft | 23 kts | 237° |
| 2026-05-07 18:32 | 52.29834 | 4.75303 | -1 ft | 19 kts | 255° |
| 2026-05-07 18:32 | 52.29883 | 4.75119 | -1 ft | 19 kts | 310° |
| 2026-05-07 18:32 | 52.29942 | 4.75009 | -1 ft | 20 kts | 311° |
| 2026-05-07 18:32 | 52.30037 | 4.74832 | -1 ft | 22 kts | 312° |
| 2026-05-07 18:33 | 52.30128 | 4.74663 | 9 ft | 16 kts | 311° |
| 2026-05-07 18:33 | 52.30200 | 4.74524 | 10 ft | 13 kts | 310° |
| 2026-05-07 18:33 | 52.30222 | 4.74484 | 10 ft | 1 kts | 311° |
| 2026-05-07 18:33 | 52.30224 | 4.74480 | 10 ft | 2 kts | 312° |
| 2026-05-07 18:34 | 52.30243 | 4.74445 | 10 ft | 5 kts | 313° |
| 2026-05-07 18:34 | 52.30275 | 4.74390 | 10 ft | 9 kts | 313° |
| 2026-05-07 18:34 | 52.30337 | 4.74276 | -1 ft | 15 kts | 310° |
| 2026-05-07 18:34 | 52.30367 | 4.74139 | -1 ft | 13 kts | 258° |
| 2026-05-07 18:35 | 52.30313 | 4.74017 | -1 ft | 14 kts | 218° |
| 2026-05-07 18:35 | 52.30225 | 4.73918 | -1 ft | 13 kts | 216° |
| 2026-05-07 18:35 | 52.30189 | 4.73787 | -2 ft | 14 kts | 285° |
| 2026-05-07 18:35 | 52.30267 | 4.73741 | -4 ft | 14 kts | 4° |
| 2026-05-07 18:36 | 52.30365 | 4.73753 | -4 ft | 14 kts | 4° |
| 2026-05-07 18:36 | 52.30464 | 4.73762 | -3 ft | 29 kts | 1° |
| 2026-05-07 18:36 | 52.30964 | 4.73816 | -1 ft | 111 kts | 3° |
| 2026-05-07 18:36 | 52.31955 | 4.73918 | 17 ft | 168 kts | 4° |
| 2026-05-07 18:37 | 52.33196 | 4.73992 | 375 ft | 183 kts | 2° |
| 2026-05-07 18:37 | 52.34501 | 4.74006 | 810 ft | 192 kts | 1° |
| 2026-05-07 18:37 | 52.35864 | 4.73984 | 1200 ft | 202 kts | 3° |
| 2026-05-07 18:37 | 52.37316 | 4.73703 | 1398 ft | 221 kts | 347° |
| 2026-05-07 18:38 | 52.38705 | 4.73023 | 1521 ft | 194 kts | 344° |
| 2026-05-07 18:38 | 52.39889 | 4.72379 | 1621 ft | 165 kts | 344° |
| 2026-05-07 18:38 | 52.41059 | 4.71720 | 1809 ft | 192 kts | 343° |
| 2026-05-07 18:38 | 52.42400 | 4.70982 | 1976 ft | 215 kts | 343° |
| 2026-05-07 18:39 | 52.43898 | 4.70179 | 2181 ft | 238 kts | 343° |
| 2026-05-07 18:39 | 52.45541 | 4.69305 | 2518 ft | 256 kts | 343° |
| 2026-05-07 18:39 | 52.47234 | 4.68416 | 2965 ft | 258 kts | 343° |
| 2026-05-07 18:39 | 52.48958 | 4.67529 | 3485 ft | 261 kts | 343° |
| 2026-05-07 18:40 | 52.50679 | 4.66662 | 4009 ft | 264 kts | 343° |
| 2026-05-07 18:40 | 52.52453 | 4.65788 | 4858 ft | 268 kts | 343° |
| 2026-05-07 18:40 | 52.54252 | 4.64927 | 5746 ft | 272 kts | 343° |
| 2026-05-07 18:40 | 52.56098 | 4.64074 | 6597 ft | 277 kts | 343° |
| 2026-05-07 18:41 | 52.57974 | 4.63232 | 7408 ft | 281 kts | 343° |
| 2026-05-07 18:41 | 52.59772 | 4.61973 | 8231 ft | 283 kts | 323° |
| 2026-05-07 18:41 | 52.61134 | 4.59652 | 9058 ft | 284 kts | 300° |
| 2026-05-07 18:41 | 52.61798 | 4.56609 | 9891 ft | 285 kts | 276° |
| 2026-05-07 18:42 | 52.61665 | 4.53315 | 10352 ft | 300 kts | 252° |
| 2026-05-07 18:42 | 52.60601 | 4.50245 | 10567 ft | 322 kts | 227° |
| 2026-05-07 18:42 | 52.59000 | 4.47564 | 11036 ft | 332 kts | 225° |
| 2026-05-07 18:42 | 52.57359 | 4.44860 | 11717 ft | 336 kts | 225° |
| 2026-05-07 18:43 | 52.55706 | 4.42121 | 12431 ft | 338 kts | 225° |
| 2026-05-07 18:43 | 52.53977 | 4.39234 | 12955 ft | 342 kts | 226° |
| 2026-05-07 18:43 | 52.52313 | 4.36441 | 13072 ft | 342 kts | 226° |
| 2026-05-07 18:43 | 52.50653 | 4.33648 | 13091 ft | 342 kts | 226° |
| 2026-05-07 18:44 | 52.48993 | 4.30862 | 13093 ft | 342 kts | 226° |
| 2026-05-07 18:44 | 52.47326 | 4.28072 | 13096 ft | 342 kts | 226° |
| 2026-05-07 18:44 | 52.45662 | 4.25287 | 13098 ft | 342 kts | 226° |
| 2026-05-07 18:44 | 52.44058 | 4.22605 | 13095 ft | 342 kts | 226° |
| 2026-05-07 18:45 | 52.42393 | 4.19827 | 13093 ft | 342 kts | 226° |
| 2026-05-07 18:45 | 52.40726 | 4.17054 | 13096 ft | 341 kts | 226° |
| 2026-05-07 18:45 | 52.39060 | 4.14285 | 13099 ft | 342 kts | 226° |
| 2026-05-07 18:45 | 52.37388 | 4.11512 | 13096 ft | 341 kts | 226° |
| 2026-05-07 18:46 | 52.35721 | 4.08750 | 13094 ft | 341 kts | 226° |
| 2026-05-07 18:46 | 52.34072 | 4.06020 | 13097 ft | 341 kts | 226° |
| 2026-05-07 18:46 | 52.32386 | 4.03228 | 13097 ft | 341 kts | 226° |
| 2026-05-07 18:46 | 52.30721 | 4.00470 | 13100 ft | 340 kts | 226° |
| 2026-05-07 18:47 | 52.29058 | 3.97717 | 13103 ft | 340 kts | 226° |
| 2026-05-07 18:47 | 52.27391 | 3.94967 | 13098 ft | 341 kts | 226° |
| 2026-05-07 18:47 | 52.25719 | 3.92212 | 13169 ft | 343 kts | 225° |
| 2026-05-07 18:47 | 52.24038 | 3.89448 | 13861 ft | 345 kts | 225° |
| 2026-05-07 18:48 | 52.22340 | 3.86662 | 14498 ft | 348 kts | 225° |
| 2026-05-07 18:48 | 52.20627 | 3.83857 | 15123 ft | 350 kts | 225° |
| 2026-05-07 18:48 | 52.18905 | 3.81035 | 15736 ft | 353 kts | 225° |
| 2026-05-07 18:48 | 52.17153 | 3.78165 | 16320 ft | 356 kts | 225° |
| 2026-05-07 18:49 | 52.15426 | 3.75337 | 16897 ft | 359 kts | 225° |
| 2026-05-07 18:49 | 52.13647 | 3.72427 | 17497 ft | 362 kts | 225° |
| 2026-05-07 18:49 | 52.11861 | 3.69516 | 18086 ft | 365 kts | 225° |
| 2026-05-07 18:49 | 52.10059 | 3.66578 | 18641 ft | 368 kts | 225° |
| 2026-05-07 18:50 | 52.08245 | 3.63621 | 19167 ft | 371 kts | 225° |
| 2026-05-07 18:50 | 52.06439 | 3.60683 | 19702 ft | 374 kts | 225° |
| 2026-05-07 18:50 | 52.04594 | 3.57684 | 20248 ft | 376 kts | 225° |
| 2026-05-07 18:50 | 52.02737 | 3.54672 | 20761 ft | 379 kts | 225° |
| 2026-05-07 18:51 | 52.00862 | 3.51638 | 21274 ft | 381 kts | 225° |
| 2026-05-07 18:51 | 51.99077 | 3.48440 | 21759 ft | 384 kts | 233° |
| 2026-05-07 18:51 | 51.97500 | 3.44933 | 22062 ft | 385 kts | 234° |
| 2026-05-07 18:51 | 51.95905 | 3.41381 | 22113 ft | 397 kts | 234° |
| 2026-05-07 18:52 | 51.94252 | 3.37715 | 22113 ft | 407 kts | 234° |
| 2026-05-07 18:52 | 51.92565 | 3.33994 | 22111 ft | 410 kts | 234° |
| 2026-05-07 18:52 | 51.90869 | 3.30269 | 22110 ft | 411 kts | 234° |
| 2026-05-07 18:52 | 51.89175 | 3.26545 | 22111 ft | 411 kts | 234° |
| 2026-05-07 18:53 | 51.87483 | 3.22816 | 22107 ft | 411 kts | 235° |
| 2026-05-07 18:53 | 51.86019 | 3.18852 | 22102 ft | 411 kts | 244° |
| 2026-05-07 18:53 | 51.85000 | 3.14538 | 22101 ft | 411 kts | 254° |
| 2026-05-07 18:53 | 51.84454 | 3.10005 | 22100 ft | 411 kts | 263° |
| 2026-05-07 18:54 | 51.84169 | 3.05412 | 22098 ft | 411 kts | 264° |
| 2026-05-07 18:54 | 51.83875 | 3.00815 | 22097 ft | 411 kts | 263° |
| 2026-05-07 18:54 | 51.83573 | 2.96218 | 22097 ft | 411 kts | 263° |
| 2026-05-07 18:54 | 51.83266 | 2.91626 | 22095 ft | 411 kts | 263° |
| 2026-05-07 18:55 | 51.82955 | 2.87022 | 22094 ft | 411 kts | 263° |
| 2026-05-07 18:55 | 51.82645 | 2.82433 | 22097 ft | 411 kts | 263° |
| 2026-05-07 18:55 | 51.82336 | 2.77834 | 22096 ft | 411 kts | 263° |
| 2026-05-07 18:55 | 51.82029 | 2.73253 | 22096 ft | 411 kts | 263° |
| 2026-05-07 18:56 | 51.81719 | 2.68659 | 22098 ft | 411 kts | 263° |
| 2026-05-07 18:56 | 51.81406 | 2.64066 | 22098 ft | 411 kts | 263° |
| 2026-05-07 18:56 | 51.81090 | 2.59480 | 22096 ft | 411 kts | 263° |
| 2026-05-07 18:56 | 51.80770 | 2.54892 | 22093 ft | 411 kts | 263° |
| 2026-05-07 18:57 | 51.80450 | 2.50309 | 22093 ft | 411 kts | 263° |
| 2026-05-07 18:57 | 51.80129 | 2.45725 | 22092 ft | 411 kts | 263° |
| 2026-05-07 18:57 | 51.79806 | 2.41145 | 22093 ft | 411 kts | 263° |
| 2026-05-07 18:57 | 51.79481 | 2.36566 | 22093 ft | 411 kts | 263° |
| 2026-05-07 18:58 | 51.79154 | 2.31980 | 22094 ft | 411 kts | 263° |
| 2026-05-07 18:58 | 51.78827 | 2.27416 | 22095 ft | 410 kts | 263° |
| 2026-05-07 18:58 | 51.78496 | 2.22823 | 22093 ft | 410 kts | 263° |
| 2026-05-07 18:58 | 51.78180 | 2.18244 | 22094 ft | 410 kts | 263° |
| 2026-05-07 18:59 | 51.77901 | 2.13662 | 22088 ft | 410 kts | 264° |
| 2026-05-07 18:59 | 51.77640 | 2.09067 | 22092 ft | 410 kts | 264° |
| 2026-05-07 18:59 | 51.77387 | 2.04472 | 22093 ft | 410 kts | 264° |
| 2026-05-07 18:59 | 51.77130 | 1.99893 | 22093 ft | 410 kts | 264° |
| 2026-05-07 19:00 | 51.76865 | 1.95300 | 22094 ft | 410 kts | 264° |
| 2026-05-07 19:00 | 51.76595 | 1.90722 | 22079 ft | 407 kts | 264° |
| 2026-05-07 19:00 | 51.76326 | 1.86253 | 21810 ft | 394 kts | 264° |
| 2026-05-07 19:00 | 51.76056 | 1.81884 | 21545 ft | 389 kts | 264° |
| 2026-05-07 19:01 | 51.75790 | 1.77612 | 21286 ft | 387 kts | 263° |
| 2026-05-07 19:01 | 51.75522 | 1.73315 | 21026 ft | 385 kts | 263° |
| 2026-05-07 19:01 | 51.75253 | 1.69018 | 20776 ft | 384 kts | 263° |
| 2026-05-07 19:01 | 51.74984 | 1.64737 | 20516 ft | 383 kts | 263° |
| 2026-05-07 19:02 | 51.74715 | 1.60469 | 20262 ft | 381 kts | 263° |
| 2026-05-07 19:02 | 51.74445 | 1.56220 | 20018 ft | 380 kts | 263° |
| 2026-05-07 19:02 | 51.74173 | 1.51974 | 19764 ft | 379 kts | 263° |
| 2026-05-07 19:02 | 51.73902 | 1.47747 | 19513 ft | 378 kts | 263° |
| 2026-05-07 19:03 | 51.73630 | 1.43533 | 19275 ft | 377 kts | 263° |
| 2026-05-07 19:03 | 51.73357 | 1.39318 | 18537 ft | 380 kts | 263° |
| 2026-05-07 19:03 | 51.73078 | 1.35081 | 17540 ft | 379 kts | 263° |
| 2026-05-07 19:03 | 51.72808 | 1.30933 | 17000 ft | 365 kts | 263° |
| 2026-05-07 19:04 | 51.72548 | 1.26944 | 16499 ft | 352 kts | 263° |
| 2026-05-07 19:04 | 51.72296 | 1.23088 | 16006 ft | 340 kts | 263° |
| 2026-05-07 19:04 | 51.72046 | 1.19342 | 15526 ft | 333 kts | 262° |
| 2026-05-07 19:04 | 51.71793 | 1.15624 | 15036 ft | 333 kts | 262° |
| 2026-05-07 19:05 | 51.71538 | 1.11912 | 14554 ft | 332 kts | 262° |
| 2026-05-07 19:05 | 51.71285 | 1.08221 | 14071 ft | 332 kts | 262° |
| 2026-05-07 19:05 | 51.71030 | 1.04518 | 13539 ft | 332 kts | 262° |
| 2026-05-07 19:05 | 51.70774 | 1.00832 | 13048 ft | 331 kts | 262° |
| 2026-05-07 19:06 | 51.70520 | 0.97154 | 12542 ft | 329 kts | 262° |
| 2026-05-07 19:06 | 51.70017 | 0.89838 | 11550 ft | 328 kts | 262° |
| 2026-05-07 19:06 | 51.69767 | 0.86194 | 11052 ft | 327 kts | 262° |
| 2026-05-07 19:07 | 51.69516 | 0.82566 | 10679 ft | 323 kts | 262° |
| 2026-05-07 19:07 | 51.69271 | 0.79042 | 10564 ft | 311 kts | 262° |
| 2026-05-07 19:07 | 51.69022 | 0.75523 | 10489 ft | 329 kts | 262° |
| 2026-05-07 19:07 | 51.68756 | 0.71789 | 10352 ft | 339 kts | 262° |
| 2026-05-07 19:08 | 51.68609 | 0.69725 | 10269 ft | 341 kts | 262° |
| 2026-05-07 19:08 | 51.68484 | 0.67959 | 10192 ft | 341 kts | 262° |
| 2026-05-07 19:08 | 51.68215 | 0.64165 | 9971 ft | 339 kts | 262° |
| 2026-05-07 19:08 | 51.67947 | 0.60413 | 9415 ft | 336 kts | 262° |
| 2026-05-07 19:09 | 51.67678 | 0.56692 | 8876 ft | 333 kts | 262° |
| 2026-05-07 19:09 | 51.67411 | 0.53012 | 8356 ft | 330 kts | 262° |
| 2026-05-07 19:09 | 51.67145 | 0.49350 | 8090 ft | 329 kts | 262° |
| 2026-05-07 19:09 | 51.66967 | 0.46927 | 8071 ft | 329 kts | 262° |
| 2026-05-07 19:10 | 51.66698 | 0.43252 | 8081 ft | 330 kts | 262° |
| 2026-05-07 19:10 | 51.66429 | 0.39578 | 8079 ft | 330 kts | 262° |
| 2026-05-07 19:10 | 51.66159 | 0.35905 | 8078 ft | 330 kts | 262° |
| 2026-05-07 19:10 | 51.65884 | 0.32228 | 8081 ft | 330 kts | 262° |
| 2026-05-07 19:11 | 51.65606 | 0.28554 | 8084 ft | 330 kts | 262° |
| 2026-05-07 19:11 | 51.65328 | 0.24886 | 8080 ft | 330 kts | 262° |
| 2026-05-07 19:11 | 51.65047 | 0.21215 | 8083 ft | 330 kts | 262° |
| 2026-05-07 19:11 | 51.64769 | 0.17550 | 8080 ft | 330 kts | 262° |
| 2026-05-07 19:12 | 51.64496 | 0.13879 | 8082 ft | 330 kts | 263° |
| 2026-05-07 19:12 | 51.64338 | 0.10184 | 8081 ft | 330 kts | 266° |
| 2026-05-07 19:12 | 51.64222 | 0.06489 | 8083 ft | 330 kts | 266° |
| 2026-05-07 19:12 | 51.64111 | 0.02806 | 8079 ft | 330 kts | 266° |
| 2026-05-07 19:13 | 51.64000 | -0.00878 | 8080 ft | 330 kts | 266° |
| 2026-05-07 19:13 | 51.63887 | -0.04573 | 8082 ft | 330 kts | 266° |
| 2026-05-07 19:13 | 51.63775 | -0.08255 | 8082 ft | 330 kts | 266° |
| 2026-05-07 19:13 | 51.63662 | -0.11941 | 8081 ft | 330 kts | 266° |
| 2026-05-07 19:14 | 51.63546 | -0.15633 | 8083 ft | 330 kts | 266° |
| 2026-05-07 19:14 | 51.63428 | -0.19329 | 8084 ft | 330 kts | 266° |
| 2026-05-07 19:14 | 51.63311 | -0.23024 | 8085 ft | 330 kts | 266° |
| 2026-05-07 19:14 | 51.63193 | -0.26702 | 7910 ft | 328 kts | 266° |
| 2026-05-07 19:15 | 51.62972 | -0.30337 | 7374 ft | 325 kts | 262° |
| 2026-05-07 19:15 | 51.62653 | -0.33924 | 7110 ft | 324 kts | 261° |
| 2026-05-07 19:15 | 51.62319 | -0.37531 | 7051 ft | 326 kts | 261° |
| 2026-05-07 19:15 | 51.61982 | -0.41149 | 7059 ft | 327 kts | 261° |
| 2026-05-07 19:16 | 51.61643 | -0.44766 | 7055 ft | 327 kts | 261° |
| 2026-05-07 19:16 | 51.61302 | -0.48393 | 7023 ft | 327 kts | 261° |
| 2026-05-07 19:16 | 51.60965 | -0.51958 | 6681 ft | 317 kts | 261° |
| 2026-05-07 19:16 | 51.60638 | -0.55374 | 6059 ft | 305 kts | 261° |
| 2026-05-07 19:17 | 51.60314 | -0.58744 | 5410 ft | 297 kts | 261° |
| 2026-05-07 19:17 | 51.60013 | -0.61899 | 5251 ft | 275 kts | 261° |
| 2026-05-07 19:17 | 51.59730 | -0.64890 | 4911 ft | 268 kts | 261° |
| 2026-05-07 19:17 | 51.59454 | -0.67828 | 4575 ft | 260 kts | 261° |
| 2026-05-07 19:18 | 51.59197 | -0.70607 | 4445 ft | 243 kts | 261° |
| 2026-05-07 19:18 | 51.58906 | -0.73214 | 4178 ft | 234 kts | 250° |
| 2026-05-07 19:18 | 51.58108 | -0.75448 | 3982 ft | 231 kts | 233° |
| 2026-05-07 19:18 | 51.57133 | -0.77507 | 3981 ft | 232 kts | 231° |
| 2026-05-07 19:19 | 51.56132 | -0.79549 | 3979 ft | 232 kts | 228° |
| 2026-05-07 19:19 | 51.54876 | -0.81051 | 3975 ft | 220 kts | 198° |
| 2026-05-07 19:19 | 51.53435 | -0.81457 | 3989 ft | 201 kts | 183° |
| 2026-05-07 19:19 | 51.52098 | -0.81568 | 3992 ft | 191 kts | 181° |
| 2026-05-07 19:20 | 51.50802 | -0.81334 | 3984 ft | 188 kts | 162° |
| 2026-05-07 19:20 | 51.49607 | -0.80501 | 3952 ft | 186 kts | 152° |
| 2026-05-07 19:20 | 51.48512 | -0.79421 | 3735 ft | 179 kts | 136° |
| 2026-05-07 19:20 | 51.47832 | -0.77877 | 3643 ft | 167 kts | 112° |
| 2026-05-07 19:21 | 51.47601 | -0.76076 | 3488 ft | 165 kts | 90° |
| 2026-05-07 19:21 | 51.47614 | -0.74242 | 3290 ft | 164 kts | 90° |
| 2026-05-07 19:21 | 51.47626 | -0.72421 | 3074 ft | 164 kts | 90° |
| 2026-05-07 19:21 | 51.47637 | -0.70593 | 2852 ft | 164 kts | 90° |
| 2026-05-07 19:22 | 51.47648 | -0.68763 | 2627 ft | 164 kts | 90° |
| 2026-05-07 19:22 | 51.47658 | -0.66933 | 2411 ft | 164 kts | 91° |
| 2026-05-07 19:22 | 51.47669 | -0.65113 | 2182 ft | 164 kts | 91° |
| 2026-05-07 19:22 | 51.47678 | -0.63283 | 1963 ft | 162 kts | 91° |
| 2026-05-07 19:23 | 51.47688 | -0.61471 | 1746 ft | 163 kts | 91° |
| 2026-05-07 19:23 | 51.47697 | -0.59643 | 1503 ft | 163 kts | 91° |
| 2026-05-07 19:23 | 51.47706 | -0.57827 | 1287 ft | 163 kts | 91° |
| 2026-05-07 19:23 | 51.47715 | -0.56057 | 1058 ft | 154 kts | 91° |
| 2026-05-07 19:24 | 51.47723 | -0.54373 | 847 ft | 148 kts | 92° |
| 2026-05-07 19:24 | 51.47730 | -0.52737 | 646 ft | 145 kts | 91° |
| 2026-05-07 19:24 | 51.47736 | -0.51135 | 470 ft | 143 kts | 92° |
| 2026-05-07 19:24 | 51.47740 | -0.49554 | 266 ft | 141 kts | 92° |
| 2026-05-07 19:25 | 51.47748 | -0.47992 | 128 ft | 139 kts | 91° |
| 2026-05-07 19:25 | 51.47747 | -0.46540 | 89 ft | 105 kts | 90° |
| 2026-05-07 19:25 | 51.47756 | -0.45712 | 88 ft | 54 kts | 88° |
| 2026-05-07 19:25 | 51.47659 | -0.45471 | 86 ft | 25 kts | 189° |
| 2026-05-07 19:26 | 51.47598 | -0.45668 | 87 ft | 21 kts | 269° |
| 2026-05-07 19:26 | 51.47595 | -0.45914 | 89 ft | 23 kts | 270° |
| 2026-05-07 19:26 | 51.47591 | -0.46144 | 87 ft | 20 kts | 271° |
| 2026-05-07 19:26 | 51.47591 | -0.46359 | 87 ft | 19 kts | 269° |
| 2026-05-07 19:27 | 51.47589 | -0.46574 | 87 ft | 19 kts | 268° |
| 2026-05-07 19:27 | 51.47588 | -0.46795 | 87 ft | 20 kts | 268° |
| 2026-05-07 19:27 | 51.47580 | -0.47023 | 90 ft | 21 kts | 269° |
| 2026-05-07 19:27 | 51.47582 | -0.47267 | 90 ft | 22 kts | 269° |
| 2026-05-07 19:28 | 51.47580 | -0.47528 | 89 ft | 24 kts | 269° |
| 2026-05-07 19:28 | 51.47578 | -0.47809 | 88 ft | 26 kts | 270° |
| 2026-05-07 19:28 | 51.47578 | -0.48095 | 88 ft | 19 kts | 269° |
| 2026-05-07 19:28 | 51.47578 | -0.48310 | 90 ft | 18 kts | 269° |
| 2026-05-07 19:29 | 51.47560 | -0.48465 | 90 ft | 12 kts | 222° |
| 2026-05-07 19:29 | 51.47479 | -0.48481 | 88 ft | 13 kts | 178° |
| 2026-05-07 19:29 | 51.47341 | -0.48477 | 87 ft | 27 kts | 179° |
| 2026-05-07 19:29 | 51.47154 | -0.48474 | 87 ft | 24 kts | 179° |
| 2026-05-07 19:30 | 51.46992 | -0.48473 | 87 ft | 22 kts | 180° |
| 2026-05-07 19:30 | 51.46901 | -0.48477 | 87 ft | 10 kts | 197° |
| 2026-05-07 19:30 | 51.46876 | -0.48557 | 88 ft | 7 kts | 270° |
| 2026-05-07 19:30 | 51.46877 | -0.48644 | 87 ft | 9 kts | 271° |
| 2026-05-07 19:31 | 51.46877 | -0.48746 | 87 ft | 9 kts | 269° |
| 2026-05-07 19:31 | 51.46876 | -0.48793 | 89 ft | 0 kts | 268° |
| 2026-05-07 19:31 | 51.46876 | -0.48808 | 88 ft | 5 kts | 268° |
| 2026-05-07 19:32 | 51.46894 | -0.48860 | 88 ft | 3 kts | 332° |
| 2026-05-07 19:32 | 51.46898 | -0.48862 | 88 ft | 2 kts | 340° |
| 2026-05-07 19:32 | 51.46916 | -0.48862 | 87 ft | 0 kts | 3° |
| 2026-05-07 19:32 | 51.46919 | -0.48861 | 87 ft | 2 kts | 2° |
| 2026-05-07 19:33 | 51.46922 | -0.48861 | 87 ft | 0 kts | 1° |